Time,TemperatureF,DewpointF,PressureIn,WindDirection,WindDirectionDegrees,WindSpeedMPH,WindSpeedGustMPH,Humidity,HourlyPrecipIn,Conditions,Clouds,dailyrainin,SolarRadiationWatts/m^2,SoftwareType,DateUTC
2013-05-04 00:02:00,60.0,58.0,-100.00,SW,217,0.0,3.0,93,0.00,,,0.21,0.000000,,2013-05-04 04:02:00,
2013-05-04 00:43:00,61.0,56.0,-100.00,South,176,2.0,7.0,84,0.00,,,0.21,0.000000,,2013-05-04 04:43:00,
2013-05-04 00:52:00,61.0,56.0,-100.00,South,176,2.0,7.0,84,0.00,,,0.21,0.000000,,2013-05-04 04:52:00,
2013-05-04 01:02:00,61.0,56.0,-100.00,South,176,2.0,7.0,84,0.00,,,0.21,0.000000,,2013-05-04 05:02:00,
2013-05-04 01:32:00,62.0,56.0,-100.00,South,169,1.0,6.0,80,0.00,,,0.21,0.000000,,2013-05-04 05:32:00,
2013-05-04 01:43:00,62.0,56.0,-100.00,South,169,1.0,6.0,80,0.00,,,0.21,0.000000,,2013-05-04 05:43:00,
2013-05-04 01:52:00,62.0,56.0,-100.00,South,169,1.0,6.0,80,0.00,,,0.21,0.000000,,2013-05-04 05:52:00,
2013-05-04 02:01:00,62.0,56.0,-100.00,South,169,1.0,6.0,80,0.00,,,0.21,0.000000,,2013-05-04 06:01:00,
2013-05-04 02:32:00,60.0,56.0,-100.00,ESE,123,2.0,5.0,86,0.00,,,0.21,0.000000,,2013-05-04 06:32:00,
2013-05-04 02:42:00,60.0,56.0,-100.00,ESE,123,2.0,5.0,86,0.00,,,0.21,0.000000,,2013-05-04 06:42:00,
2013-05-04 02:52:00,60.0,56.0,-100.00,ESE,123,2.0,5.0,86,0.00,,,0.21,0.000000,,2013-05-04 06:52:00,
2013-05-04 03:01:00,60.0,56.0,-100.00,ESE,123,2.0,5.0,86,0.00,,,0.21,0.000000,,2013-05-04 07:01:00,
2013-05-04 03:42:00,60.0,50.0,-100.00,SSE,163,2.0,11.0,70,0.00,,,0.21,0.000000,,2013-05-04 07:42:00,
2013-05-04 03:52:00,60.0,50.0,-100.00,SSE,163,2.0,11.0,70,0.00,,,0.21,0.000000,,2013-05-04 07:52:00,
2013-05-04 04:01:00,60.0,50.0,-100.00,SSE,163,2.0,11.0,70,0.00,,,0.21,0.000000,,2013-05-04 08:01:00,
2013-05-04 04:42:00,59.0,46.0,-100.00,SE,130,2.0,10.0,63,0.00,,,0.21,0.000000,,2013-05-04 08:42:00,
2013-05-04 04:52:00,59.0,46.0,-100.00,SE,130,2.0,10.0,63,0.00,,,0.21,0.000000,,2013-05-04 08:52:00,
2013-05-04 05:02:00,59.0,46.0,-100.00,SE,130,2.0,10.0,63,0.00,,,0.21,0.000000,,2013-05-04 09:02:00,
2013-05-04 05:33:00,58.0,47.0,-100.00,SE,133,3.0,9.0,67,0.00,,,0.21,0.000000,,2013-05-04 09:33:00,
2013-05-04 05:42:00,58.0,47.0,-100.00,SE,133,3.0,9.0,67,0.00,,,0.21,0.000000,,2013-05-04 09:42:00,
2013-05-04 05:53:00,58.0,47.0,-100.00,SE,133,3.0,9.0,67,0.00,,,0.21,0.000000,,2013-05-04 09:53:00,
2013-05-04 06:03:00,58.0,47.0,-100.00,SE,133,3.0,9.0,67,0.00,,,0.21,0.000000,,2013-05-04 10:03:00,
2013-05-04 06:33:00,58.0,46.0,-100.00,SE,137,3.0,7.0,64,0.00,,,0.21,0.000000,,2013-05-04 10:33:00,
2013-05-04 06:42:00,58.0,46.0,-100.00,SE,137,3.0,7.0,64,0.00,,,0.21,0.000000,,2013-05-04 10:42:00,
2013-05-04 06:53:00,58.0,46.0,-100.00,SE,137,3.0,7.0,64,0.00,,,0.21,0.000000,,2013-05-04 10:53:00,
2013-05-04 07:02:00,58.0,46.0,-100.00,SE,137,3.0,7.0,64,0.00,,,0.21,0.000000,,2013-05-04 11:02:00,
2013-05-04 07:32:00,57.0,44.0,-100.00,SE,135,3.0,7.0,61,0.00,,,0.21,7.000000,,2013-05-04 11:32:00,
2013-05-04 07:46:00,57.0,44.0,-100.00,SE,135,3.0,7.0,61,0.00,,,0.21,7.000000,,2013-05-04 11:46:00,
2013-05-04 08:02:00,57.0,44.0,-100.00,SE,135,3.0,7.0,61,0.00,,,0.21,7.000000,,2013-05-04 12:02:00,
2013-05-04 09:32:00,60.0,46.0,-100.00,SSE,163,4.0,11.0,60,-99.99,,,0.21,142.000000,,2013-05-04 13:32:00,
2013-05-04 09:42:00,60.0,46.0,-100.00,SSE,163,4.0,11.0,60,-99.99,,,0.21,142.000000,,2013-05-04 13:42:00,
2013-05-04 09:52:00,60.0,46.0,-100.00,SSE,163,4.0,11.0,60,-99.99,,,0.21,142.000000,,2013-05-04 13:52:00,
2013-05-04 10:02:00,60.0,46.0,-100.00,SSE,163,4.0,11.0,60,-99.99,,,0.21,142.000000,,2013-05-04 14:02:00,
2013-05-04 10:32:00,60.0,46.0,-100.00,SSE,164,3.0,13.0,59,0.00,,,0.21,174.000000,,2013-05-04 14:32:00,
2013-05-04 10:42:00,60.0,46.0,-100.00,SSE,164,3.0,13.0,59,0.00,,,0.21,174.000000,,2013-05-04 14:42:00,
2013-05-04 10:52:00,60.0,46.0,-100.00,SSE,164,3.0,13.0,59,0.00,,,0.21,174.000000,,2013-05-04 14:52:00,
2013-05-04 11:02:00,60.0,46.0,-100.00,SSE,164,3.0,13.0,59,0.00,,,0.21,174.000000,,2013-05-04 15:02:00,
2013-05-04 11:33:00,57.0,51.0,-100.00,SSE,152,4.0,11.0,79,0.02,,,0.23,180.000000,,2013-05-04 15:33:00,
2013-05-04 11:43:00,57.0,51.0,-100.00,SSE,152,4.0,11.0,79,0.02,,,0.23,180.000000,,2013-05-04 15:43:00,
2013-05-04 11:53:00,57.0,51.0,-100.00,SSE,152,4.0,11.0,79,0.02,,,0.23,180.000000,,2013-05-04 15:53:00,
2013-05-04 12:03:00,57.0,51.0,-100.00,SSE,152,4.0,11.0,79,0.02,,,0.23,180.000000,,2013-05-04 16:03:00,
2013-05-04 12:33:00,59.0,52.0,-100.00,SSE,148,2.0,11.0,77,0.01,,,0.24,238.000000,,2013-05-04 16:33:00,
2013-05-04 12:42:00,59.0,52.0,-100.00,SSE,148,2.0,11.0,77,0.01,,,0.24,238.000000,,2013-05-04 16:42:00,
2013-05-04 12:52:00,59.0,52.0,-100.00,SSE,148,2.0,11.0,77,0.01,,,0.24,238.000000,,2013-05-04 16:52:00,
2013-05-04 13:02:00,59.0,52.0,-100.00,SSE,148,2.0,11.0,77,0.01,,,0.24,238.000000,,2013-05-04 17:02:00,
2013-05-04 13:33:00,59.0,52.0,-100.00,SW,223,0.0,10.0,78,0.01,,,0.25,237.000000,,2013-05-04 17:33:00,
2013-05-04 13:42:00,59.0,52.0,-100.00,SW,223,0.0,10.0,78,0.01,,,0.25,237.000000,,2013-05-04 17:42:00,
2013-05-04 13:52:00,59.0,52.0,-100.00,SW,223,0.0,10.0,78,0.01,,,0.25,237.000000,,2013-05-04 17:52:00,
2013-05-04 14:01:00,59.0,52.0,-100.00,SW,223,0.0,10.0,78,0.01,,,0.25,237.000000,,2013-05-04 18:01:00,
2013-05-04 14:32:00,54.0,51.0,-100.00,South,170,3.0,9.0,90,0.06,,,0.31,152.000000,,2013-05-04 18:32:00,
2013-05-04 14:42:00,54.0,51.0,-100.00,South,170,3.0,9.0,90,0.06,,,0.31,152.000000,,2013-05-04 18:42:00,
2013-05-04 14:52:00,54.0,51.0,-100.00,South,170,3.0,9.0,90,0.06,,,0.31,152.000000,,2013-05-04 18:52:00,
2013-05-04 15:01:00,54.0,51.0,-100.00,South,170,3.0,9.0,90,0.06,,,0.31,152.000000,,2013-05-04 19:01:00,
2013-05-04 15:32:00,55.0,53.0,-100.00,SW,234,0.0,8.0,92,0.03,,,0.34,147.000000,,2013-05-04 19:32:00,
2013-05-04 15:42:00,55.0,53.0,-100.00,SW,234,0.0,8.0,92,0.03,,,0.34,147.000000,,2013-05-04 19:42:00,
2013-05-04 15:52:00,55.0,53.0,-100.00,SW,234,0.0,8.0,92,0.03,,,0.34,147.000000,,2013-05-04 19:52:00,
2013-05-04 16:02:00,55.0,53.0,-100.00,SW,234,0.0,8.0,92,0.03,,,0.34,147.000000,,2013-05-04 20:02:00,
2013-05-04 16:42:00,57.0,55.0,-100.00,SW,236,1.0,4.0,92,0.01,,,0.35,197.000000,,2013-05-04 20:42:00,
2013-05-04 16:52:00,57.0,55.0,-100.00,SW,236,1.0,4.0,92,0.01,,,0.35,197.000000,,2013-05-04 20:52:00,
2013-05-04 17:02:00,57.0,55.0,-100.00,SW,236,1.0,4.0,92,0.01,,,0.35,197.000000,,2013-05-04 21:02:00,
2013-05-04 17:33:00,54.0,52.0,-100.00,WSW,254,0.0,6.0,94,0.01,,,0.36,92.000000,,2013-05-04 21:33:00,
2013-05-04 17:43:00,54.0,52.0,-100.00,WSW,254,0.0,6.0,94,0.01,,,0.36,92.000000,,2013-05-04 21:43:00,
2013-05-04 17:53:00,54.0,52.0,-100.00,WSW,254,0.0,6.0,94,0.01,,,0.36,92.000000,,2013-05-04 21:53:00,
2013-05-04 18:03:00,54.0,52.0,-100.00,WSW,254,0.0,6.0,94,0.01,,,0.36,92.000000,,2013-05-04 22:03:00,
2013-05-04 18:33:00,54.0,53.0,-100.00,West,267,2.0,5.0,95,0.01,,,-99.99,73.000000,,2013-05-04 22:33:00,
2013-05-04 18:42:00,54.0,53.0,-100.00,West,267,2.0,5.0,95,0.01,,,-99.99,73.000000,,2013-05-04 22:42:00,
2013-05-04 18:52:00,54.0,53.0,-100.00,West,267,2.0,5.0,95,0.01,,,-99.99,73.000000,,2013-05-04 22:52:00,
2013-05-04 19:02:00,54.0,53.0,-100.00,West,267,2.0,5.0,95,0.01,,,-99.99,73.000000,,2013-05-04 23:02:00,
2013-05-04 19:42:00,53.0,52.0,-100.00,North,0,1.0,6.0,96,0.00,,,-99.99,68.000000,,2013-05-04 23:42:00,
2013-05-04 19:52:00,53.0,52.0,-100.00,North,0,1.0,6.0,96,0.00,,,-99.99,68.000000,,2013-05-04 23:52:00,
2013-05-04 20:02:00,53.0,52.0,-100.00,North,0,1.0,6.0,96,0.00,,,-99.99,68.000000,,2013-05-05 00:02:00,
2013-05-04 21:42:00,53.0,52.0,-100.00,SSE,153,1.0,2.0,98,-99.99,,,0.19,2.000000,,2013-05-05 01:42:00,
2013-05-04 21:52:00,53.0,52.0,-100.00,SSE,153,1.0,2.0,98,-99.99,,,0.19,2.000000,,2013-05-05 01:52:00,
2013-05-04 22:02:00,53.0,52.0,-100.00,SSE,153,1.0,2.0,98,-99.99,,,0.19,2.000000,,2013-05-05 02:02:00,
2013-05-04 22:32:00,52.0,51.0,-100.00,ENE,77,1.0,3.0,98,0.10,,,0.29,0.000000,,2013-05-05 02:32:00,
2013-05-04 22:42:00,52.0,51.0,-100.00,ENE,77,1.0,3.0,98,0.10,,,0.29,0.000000,,2013-05-05 02:42:00,
2013-05-04 22:52:00,52.0,51.0,-100.00,ENE,77,1.0,3.0,98,0.10,,,0.29,0.000000,,2013-05-05 02:52:00,
2013-05-04 23:01:00,52.0,51.0,-100.00,ENE,77,1.0,3.0,98,0.10,,,0.29,0.000000,,2013-05-05 03:01:00,
2013-05-04 23:33:00,52.0,51.0,-100.00,East,87,1.0,4.0,98,0.06,,,0.35,0.000000,,2013-05-05 03:33:00,
2013-05-04 23:42:00,52.0,51.0,-100.00,East,87,1.0,4.0,98,0.06,,,0.35,0.000000,,2013-05-05 03:42:00,
2013-05-04 23:53:00,52.0,51.0,-100.00,East,87,1.0,4.0,98,0.06,,,0.35,0.000000,,2013-05-05 03:53:00,